• Join FlightAware (Why Join?)
  • Login
  • US Flag 
 
01:44PM EST


 

Airport Tracker/Info


-or-


 

Live Flight TrackerFlight Track Log ✈ RPA4900 ✈ 22-Jun-2013 ✈ KORF - KEWR

Flight Track Log - Related Links

Times and Time Zones

All times are in EDT time to prevent confusion due to time zone crossing. See the RPA4900 flight status page for this flight to view local times or setup timezone preferences in your user account.

Time Position Orientation Groundspeed Altitude Reporting Facility
EDT Latitude Longitude Course Direction KTS MPH feet Rate Location/Type
06:52PM 36.9036 -76.1919 293° West 182 209 800  Level Washington Center
06:53PM 36.9578 -76.1636 23° Northeast 236 272 3,400 1,560 Climbing Washington Center
06:54PM 37.0017 -76.1953 330° Northwest 284 327 3,900 1,080 Climbing Washington Center
06:55PM 37.0970 -76.6267 300° West  Level FlightAware Approximate
06:55PM 37.0575 -76.2581 318° Northwest 291 335 5,400  Level Washington Center
06:56PM 37.1473 -76.7373 300° West  Level FlightAware Approximate
06:56PM 37.1156 -76.3264 317° Northwest 275 316 8,300  Level Washington Center
06:57PM 37.1944 -76.8499 293° West  Level FlightAware Approximate
06:57PM 37.1483 -76.4153 295° West 269 310 10,600  Level Washington Center
06:58PM 37.2000 -76.4861 312° West 269 310 12,600 1,440 Climbing Washington Center
06:59PM 37.2619 -76.5522 320° Northwest 280 322 13,600 1,140 Climbing Washington Center
07:00PM 37.3497 -76.5456 North 271 312 14,900 1,080 Climbing Washington Center
07:01PM 37.4372 -76.5467 359° North 287 330 15,800 1,500 Climbing Washington Center
07:02PM 37.5247 -76.5633 351° North 304 350 17,900 1,920 Climbing Washington Center
07:03PM 37.6019 -76.5747 353° North 297 342 19,700 1,320 Climbing Washington Center
07:04PM 37.6811 -76.5889 352° North 284 327 20,600 840 Climbing Washington Center
07:05PM 37.7625 -76.5664 12° North 284 327 21,400 780 Climbing Washington Center
07:06PM 37.8400 -76.5358 17° North 306 352 22,200 720 Climbing Washington Center
07:07PM 37.9256 -76.5106 13° North 312 359 22,900 360 Climbing Washington Center
07:08PM 38.0156 -76.4825 14° North 319 367 23,000 -780 Climbing Washington Center
07:09PM 38.1158 -76.4494 15° North 341 392 21,400 -1,740 Descending Washington Center
07:10PM 38.2119 -76.4242 12° North 353 406 19,600 -1,620 Descending Washington Center
07:11PM 38.3186 -76.3936 13° North 353 406 18,300 -1,860 Descending Washington Center
07:12PM 38.4167 -76.3656 13° North 358 412 16,000 -2,040 Descending Washington Center
07:13PM 38.5108 -76.3344 14° North 358 412 14,300 -1,500 Descending Washington Center
07:14PM 38.6028 -76.3089 12° North 348 400 13,000 -660 Descending Washington Center
07:15PM 38.6842 -76.2806 15° North 319 367 13,000  Level Washington Center
07:16PM 38.7656 -76.2547 14° North 304 350 13,000 -300 Level Washington Center
07:17PM 38.8492 -76.2314 12° North 299 344 12,400 -540 Descending Washington Center
07:18PM 38.9347 -76.2053 13° North 299 344 12,000 -240 Descending Washington Center
07:19PM 39.0225 -76.1767 14° North 306 352 12,000 -60 Level Washington Center
07:20PM 39.1122 -76.1453 15° North 319 367 11,900 -240 Descending Washington Center
07:21PM 39.2019 -76.1192 13° North 324 373 11,600 -480 Descending Washington Center
07:22PM 39.2917 -76.0742 21° North 331 381 11,000 -360 Descending Washington Center
07:23PM 39.3608 -75.9917 43° Northeast 331 381 10,900  Descending Washington Center
07:25PM 39.5000 -75.8167 44° Northeast 338 389 11,000  Climbing Philadelphia TRACON
07:26PM 39.5500 -75.7500 46° Northeast 337 388 11,000  Level Philadelphia TRACON
07:27PM 39.6000 -75.6333 61° Northeast 334 384 11,000  Level Philadelphia TRACON
07:28PM 39.6500 -75.5167 61° Northeast 336 387 11,000  Level Philadelphia TRACON
07:29PM 39.6833 -75.4167 67° East 336 387 11,000  Level Philadelphia TRACON
07:30PM 39.7333 -75.3167 57° Northeast 337 388 11,000 -60 Level Philadelphia TRACON
07:31PM 39.7667 -75.2167 67° East 337 388 10,900 -480 Descending Philadelphia TRACON
07:32PM 39.8167 -75.1000 61° Northeast 340 391 10,100 -480 Descending Philadelphia TRACON
07:33PM 39.8500 -75.0000 67° East 314 361 10,000 -120 Descending Philadelphia TRACON
07:34PM 39.9167 -74.9000 49° Northeast 306 352 9,900 -540 Descending Philadelphia TRACON
07:35PM 39.9667 -74.8333 46° Northeast 303 349 9,000 -1,020 Descending Philadelphia TRACON
07:35PM 40.0167 -74.7667 46° Northeast 288 331 8,200 -900 Descending New York TRACON
07:36PM 40.0667 -74.7000 46° Northeast 279 321 7,500 -600 Descending New York TRACON
07:37PM 40.1333 -74.6500 30° Northeast 270 311 7,000 -300 Descending New York TRACON
07:38PM 40.1833 -74.6333 14° North 267 307 7,000 -360 Level New York TRACON
07:39PM 40.2667 -74.6167 North 271 312 6,400 -540 Descending New York TRACON
07:40PM 40.3167 -74.6667 323° Northwest 255 293 6,000 -240 Descending New York TRACON
07:41PM 40.3333 -74.7500 285° West 237 273 6,000  Level New York TRACON
07:42PM 40.3833 -74.7833 333° Northwest 259 298 6,000  Level New York TRACON
07:43PM 40.4333 -74.7000 52° Northeast 271 312 6,000  Level New York TRACON
07:44PM 40.4833 -74.6333 45° Northeast 271 312 6,000  Level New York TRACON
07:45PM 40.5333 -74.5667 45° Northeast 276 318 6,000 -300 Level New York TRACON
07:46PM 40.6000 -74.5833 349° North 251 289 5,500 -480 Descending New York TRACON
07:47PM 40.6667 -74.6167 339° North 248 285 5,100 -300 Descending New York TRACON
07:48PM 40.7167 -74.5667 37° Northeast 270 311 5,000 -300 Descending New York TRACON
07:49PM 40.7833 -74.5167 30° Northeast 265 305 4,600 -540 Descending New York TRACON
07:50PM 40.8500 -74.4667 30° Northeast 261 300 4,000 -300 Descending New York TRACON
07:51PM 40.9000 -74.3833 52° Northeast 272 313 4,000  Level New York TRACON
07:52PM 40.9167 -74.3000 75° East 239 275 4,000  Level New York TRACON
07:53PM 40.9500 -74.2167 62° Northeast 242 278 4,000 -120 Level New York TRACON
07:54PM 40.9333 -74.1500 108° East 242 278 3,800 -540 Descending New York TRACON
07:55PM 40.9000 -74.0833 123° Southeast 228 262 3,000 -420 Descending New York TRACON
07:56PM 40.8333 -74.0833 180° South 194 223 3,000 -540 Level New York TRACON
07:57PM 40.7833 -74.1000 194° South 186 214 2,000 -1,020 Descending New York TRACON